createdAt,value
2023-09-27T00:00:00.437Z,102014.19
2023-09-27T00:02:32.083Z,102012.47
2023-09-27T00:05:07.986Z,102015.84
2023-09-27T00:07:41.476Z,102014.44
2023-09-27T00:10:13.734Z,102017.91
2023-09-27T00:12:49.346Z,102012.19
2023-09-27T00:15:21.047Z,102023.91
2023-09-27T00:17:52.715Z,102020.03
2023-09-27T00:20:25.748Z,102018.97
2023-09-27T00:22:57.426Z,102015.59
2023-09-27T00:25:29.974Z,102010.56
2023-09-27T00:28:01.584Z,102020.41
2023-09-27T00:30:33.156Z,102021.50
2023-09-27T00:33:05.860Z,102016.69
2023-09-27T00:35:37.547Z,102005.31
2023-09-27T00:38:09.227Z,102008.44
2023-09-27T00:40:48.572Z,102012.50
2023-09-27T00:43:26.961Z,102011.78
2023-09-27T00:46:02.505Z,102000.09
2023-09-27T00:48:37.065Z,101997.00
2023-09-27T00:51:08.647Z,101996.38
2023-09-27T00:53:42.419Z,102000.75
2023-09-27T00:56:14.433Z,101998.78
2023-09-27T00:58:46.157Z,101995.06
2023-09-27T01:01:19.033Z,101994.34
2023-09-27T01:03:51.460Z,102002.38
2023-09-27T01:06:23.802Z,102001.75
2023-09-27T01:08:55.435Z,102000.88
2023-09-27T01:11:28.451Z,102000.03
2023-09-27T01:14:00.541Z,102003.22
2023-09-27T01:16:33.550Z,101998.03
2023-09-27T01:19:05.343Z,102002.63
2023-09-27T01:21:36.906Z,102014.41
2023-09-27T01:24:10.734Z,102019.84
2023-09-27T01:26:42.355Z,102021.72
2023-09-27T01:29:14.165Z,102016.97
2023-09-27T01:31:45.770Z,102002.13
2023-09-27T01:34:17.516Z,102007.19
2023-09-27T01:36:49.527Z,102024.19
2023-09-27T01:39:21.110Z,102022.06
2023-09-27T01:41:52.946Z,102019.09
2023-09-27T01:44:24.601Z,102016.16
2023-09-27T01:46:56.158Z,102020.56
2023-09-27T01:49:27.689Z,102032.19
2023-09-27T01:51:59.280Z,102024.78
2023-09-27T01:54:30.777Z,102033.41
2023-09-27T01:57:02.326Z,102034.84
2023-09-27T01:59:33.877Z,102032.13
2023-09-27T02:02:05.449Z,102030.97
2023-09-27T02:04:37.024Z,102036.53
2023-09-27T02:07:09.003Z,102032.31
2023-09-27T02:09:40.517Z,102024.28
2023-09-27T02:12:12.059Z,102014.44
2023-09-27T02:14:43.620Z,102007.19
2023-09-27T02:17:15.204Z,102018.31
2023-09-27T02:19:46.858Z,102020.97
2023-09-27T02:22:19.509Z,102017.81
2023-09-27T02:24:51.068Z,102007.22
2023-09-27T02:27:22.655Z,102018.25
2023-09-27T02:29:54.193Z,102027.59
2023-09-27T02:32:25.734Z,102038.50
2023-09-27T02:34:57.328Z,102032.63
2023-09-27T02:37:29.077Z,102040.94
2023-09-27T02:40:00.559Z,102040.22
2023-09-27T02:42:32.111Z,102038.09
2023-09-27T02:45:04.224Z,102033.25
2023-09-27T02:47:36.747Z,102027.09
2023-09-27T02:50:12.218Z,102028.22
2023-09-27T02:52:45.039Z,102021.56
2023-09-27T02:55:17.087Z,102020.06
2023-09-27T02:57:54.334Z,102023.31
2023-09-27T03:00:27.798Z,102022.31
2023-09-27T03:02:59.586Z,102026.16
2023-09-27T03:05:36.382Z,102029.03
2023-09-27T03:08:08.389Z,102030.38
2023-09-27T03:10:40.084Z,102033.59
2023-09-27T03:13:12.715Z,102035.47
2023-09-27T03:15:45.268Z,102048.59
2023-09-27T03:18:17.078Z,102051.31
2023-09-27T03:20:48.661Z,102045.25
2023-09-27T03:23:20.241Z,102030.88
2023-09-27T03:25:52.020Z,102026.91
2023-09-27T03:28:24.384Z,102026.53
2023-09-27T03:30:55.897Z,102014.13
2023-09-27T03:33:28.520Z,102024.06
2023-09-27T03:36:04.172Z,102022.72
2023-09-27T03:38:36.178Z,102019.00
2023-09-27T03:41:09.565Z,102019.00
2023-09-27T03:43:41.139Z,102021.13
2023-09-27T03:46:27.978Z,102020.00
2023-09-27T03:48:59.533Z,102026.97
2023-09-27T03:51:31.135Z,102024.97
2023-09-27T03:54:02.652Z,102030.66
2023-09-27T03:56:34.241Z,102031.41
2023-09-27T03:59:05.909Z,102032.78
2023-09-27T04:01:38.286Z,102038.50
2023-09-27T04:04:10.504Z,102041.56
2023-09-27T04:06:42.282Z,102035.00
2023-09-27T04:09:13.838Z,102029.81
2023-09-27T04:11:45.561Z,102033.78
2023-09-27T04:14:17.221Z,102032.41
2023-09-27T04:16:48.733Z,102040.34
2023-09-27T04:19:20.297Z,102033.41
2023-09-27T04:21:51.812Z,102027.34
2023-09-27T04:24:24.130Z,102032.28
2023-09-27T04:26:55.667Z,102034.38
2023-09-27T04:29:27.627Z,102033.16
2023-09-27T04:31:59.326Z,102032.53
2023-09-27T04:34:30.959Z,102031.19
2023-09-27T04:37:02.445Z,102033.16
2023-09-27T04:39:33.952Z,102027.69
2023-09-27T04:42:05.464Z,102028.44
2023-09-27T04:44:37.090Z,102024.84
2023-09-27T04:47:08.693Z,102018.19
2023-09-27T04:49:40.242Z,102022.84
2023-09-27T04:52:11.727Z,102012.72
2023-09-27T04:54:43.294Z,102006.41
2023-09-27T04:57:14.760Z,102016.94
2023-09-27T04:59:49.652Z,102013.19
2023-09-27T05:02:21.753Z,102022.38
2023-09-27T05:04:53.324Z,102015.16
2023-09-27T05:07:25.787Z,102031.91
2023-09-27T05:09:57.354Z,102027.19
2023-09-27T05:12:28.875Z,102032.66
2023-09-27T05:15:00.410Z,102031.03
2023-09-27T05:17:31.998Z,102030.78
2023-09-27T05:20:12.238Z,102037.63
2023-09-27T05:22:44.953Z,102040.94
2023-09-27T05:25:16.502Z,102047.25
2023-09-27T05:27:48.002Z,102043.94
2023-09-27T05:30:22.508Z,102044.41
2023-09-27T05:32:54.572Z,102040.66
2023-09-27T05:35:26.166Z,102045.38
2023-09-27T05:38:00.029Z,102056.00
2023-09-27T05:40:32.487Z,102046.97
2023-09-27T05:43:04.363Z,102047.75
2023-09-27T05:45:36.066Z,102048.59
2023-09-27T05:48:07.682Z,102053.91
2023-09-27T05:50:41.743Z,102060.69
2023-09-27T05:53:13.655Z,102064.63
2023-09-27T05:55:45.417Z,102069.09
2023-09-27T05:58:17.029Z,102064.41
2023-09-27T06:00:49.228Z,102060.75
2023-09-27T06:03:21.046Z,102062.84
2023-09-27T06:05:52.657Z,102056.59
2023-09-27T06:08:24.269Z,102046.00
2023-09-27T06:10:56.802Z,102044.13
2023-09-27T06:13:29.451Z,102052.88
2023-09-27T06:16:02.004Z,102064.06
2023-09-27T06:18:33.696Z,102058.56
2023-09-27T06:21:08.280Z,102062.94
2023-09-27T06:23:41.087Z,102060.06
2023-09-27T06:26:13.719Z,102062.88
2023-09-27T06:28:45.406Z,102080.03
2023-09-27T06:31:17.055Z,102091.38
2023-09-27T06:33:49.004Z,102094.50
2023-09-27T06:36:22.623Z,102086.25
2023-09-27T06:38:54.447Z,102089.25
2023-09-27T06:41:26.206Z,102088.56
2023-09-27T06:43:57.793Z,102098.22
2023-09-27T06:46:35.625Z,102094.38
2023-09-27T06:49:20.639Z,102103.66
2023-09-27T06:51:52.190Z,102112.91
2023-09-27T06:54:23.935Z,102122.41
2023-09-27T06:56:55.486Z,102118.28
2023-09-27T06:59:27.709Z,102124.94
2023-09-27T07:01:59.335Z,102126.16
2023-09-27T07:04:30.895Z,102130.22
2023-09-27T07:07:03.566Z,102128.34
2023-09-27T07:09:35.378Z,102129.09
2023-09-27T07:12:06.964Z,102139.06
2023-09-27T07:14:38.569Z,102145.69
2023-09-27T07:17:10.152Z,102128.09
2023-09-27T07:19:41.892Z,102112.06
2023-09-27T07:22:16.776Z,102105.47
2023-09-27T07:24:49.994Z,102102.41
2023-09-27T07:27:21.479Z,102094.00
2023-09-27T07:29:53.049Z,102095.13
2023-09-27T07:32:24.599Z,102098.22
2023-09-27T07:34:59.215Z,102103.94
2023-09-27T07:37:33.577Z,102092.38
2023-09-27T07:40:10.870Z,102094.25
2023-09-27T07:42:44.770Z,102098.09
2023-09-27T07:45:23.587Z,102099.44
2023-09-27T07:47:55.869Z,102098.09
2023-09-27T07:50:34.740Z,102090.97
2023-09-27T07:53:07.601Z,102087.63
2023-09-27T07:55:51.778Z,102092.38
2023-09-27T07:58:23.828Z,102099.00
2023-09-27T08:00:55.421Z,102083.88
2023-09-27T08:03:28.545Z,102081.88
2023-09-27T08:06:00.278Z,102080.72
2023-09-27T08:08:31.899Z,102082.31
2023-09-27T08:11:03.788Z,102073.81
2023-09-27T08:13:35.672Z,102082.44
2023-09-27T08:16:09.049Z,102086.19
2023-09-27T08:18:41.596Z,102078.59
2023-09-27T08:21:13.314Z,102081.78
2023-09-27T08:23:44.932Z,102074.69
2023-09-27T08:26:16.646Z,102074.00
2023-09-27T08:28:48.214Z,102074.75
2023-09-27T08:31:19.857Z,102084.19
2023-09-27T08:33:51.384Z,102083.47
2023-09-27T08:36:22.924Z,102075.72
2023-09-27T08:38:54.621Z,102079.50
2023-09-27T08:41:26.455Z,102089.91
2023-09-27T08:43:58.706Z,102081.84
2023-09-27T08:46:34.871Z,102076.03
2023-09-27T08:49:09.730Z,102085.75
2023-09-27T08:51:43.401Z,102086.00
2023-09-27T08:54:20.137Z,102085.38
2023-09-27T08:56:52.710Z,102084.16
2023-09-27T08:59:24.387Z,102093.81
2023-09-27T09:01:58.570Z,102099.13
2023-09-27T09:04:32.239Z,102101.38
2023-09-27T09:07:04.527Z,102112.09
2023-09-27T09:09:36.318Z,102115.16
2023-09-27T09:12:10.968Z,102114.81
2023-09-27T09:14:45.793Z,102124.69
2023-09-27T09:17:26.042Z,102121.97
2023-09-27T09:20:22.518Z,102121.00
2023-09-27T09:22:58.595Z,102124.44
2023-09-27T09:25:30.633Z,102119.31
2023-09-27T09:28:10.251Z,102116.56
2023-09-27T09:30:41.977Z,102121.88
2023-09-27T09:33:18.612Z,102120.66
2023-09-27T09:35:52.322Z,102124.00
2023-09-27T09:38:31.924Z,102125.56
2023-09-27T09:41:03.883Z,102132.13
2023-09-27T09:43:37.855Z,102120.84
2023-09-27T09:46:11.914Z,102123.16
2023-09-27T09:48:45.511Z,102120.22
2023-09-27T09:51:19.902Z,102116.13
2023-09-27T09:53:54.570Z,102114.47
2023-09-27T09:56:33.525Z,102110.38
2023-09-27T09:59:10.638Z,102123.34
2023-09-27T10:01:43.670Z,102110.34
2023-09-27T10:04:16.887Z,102106.13
2023-09-27T10:06:49.732Z,102106.25
2023-09-27T10:09:29.516Z,102104.16
2023-09-27T10:12:02.402Z,102088.19
2023-09-27T10:14:34.548Z,102101.09
2023-09-27T10:17:06.174Z,102086.53
2023-09-27T10:19:37.809Z,102090.41
2023-09-27T10:22:15.259Z,102096.19
2023-09-27T10:24:46.976Z,102094.22
2023-09-27T10:27:20.053Z,102088.38
2023-09-27T10:29:59.310Z,102093.03
2023-09-27T10:32:32.228Z,102097.84
2023-09-27T10:35:18.447Z,102104.50
2023-09-27T10:38:00.725Z,102101.31
2023-09-27T10:40:43.523Z,102106.06
2023-09-27T10:43:36.415Z,102104.63
2023-09-27T10:46:08.556Z,102101.81
2023-09-27T10:48:43.723Z,102109.28
2023-09-27T10:51:15.385Z,102114.00
2023-09-27T10:53:47.022Z,102116.53
2023-09-27T10:56:19.113Z,102101.31
2023-09-27T10:58:50.990Z,102095.31
2023-09-27T11:01:24.658Z,102096.03
2023-09-27T11:04:05.219Z,102098.53
2023-09-27T11:06:36.957Z,102101.59
2023-09-27T11:09:10.023Z,102095.75
2023-09-27T11:11:45.229Z,102098.03
2023-09-27T11:14:33.009Z,102105.31
2023-09-27T11:17:17.928Z,102108.03
2023-09-27T11:19:53.513Z,102107.31
2023-09-27T11:22:26.397Z,102105.88
2023-09-27T11:24:57.947Z,102095.53
2023-09-27T11:27:29.540Z,102098.38
2023-09-27T11:30:01.102Z,102093.06
2023-09-27T11:32:50.961Z,102081.44
2023-09-27T11:35:22.705Z,102073.56
2023-09-27T11:38:14.487Z,102065.38
2023-09-27T11:40:47.647Z,102063.75
2023-09-27T11:43:19.641Z,102069.66
2023-09-27T11:45:51.544Z,102065.94
2023-09-27T11:48:41.089Z,102066.09
2023-09-27T11:51:13.020Z,102058.03
2023-09-27T11:53:46.767Z,102039.91
2023-09-27T11:56:18.415Z,102031.84
2023-09-27T11:58:49.997Z,102030.25
2023-09-27T12:01:21.542Z,102025.13
2023-09-27T12:03:53.635Z,102013.00
2023-09-27T12:06:26.995Z,102013.56
2023-09-27T12:09:01.924Z,102012.06
2023-09-27T12:11:33.924Z,101988.66
2023-09-27T12:14:05.839Z,101979.41
2023-09-27T12:16:37.488Z,101981.94
2023-09-27T12:19:09.280Z,101983.25
2023-09-27T12:21:40.771Z,101968.06
2023-09-27T12:24:12.406Z,101965.81
2023-09-27T12:26:44.015Z,101969.50
2023-09-27T12:29:15.661Z,101960.94
2023-09-27T12:31:47.212Z,101942.06
2023-09-27T12:34:20.259Z,101944.22
2023-09-27T12:36:52.032Z,101946.72
2023-09-27T12:39:23.590Z,101945.63
2023-09-27T12:41:55.139Z,101935.59
2023-09-27T12:44:27.299Z,101926.06
2023-09-27T12:46:58.887Z,101925.63
2023-09-27T12:49:30.542Z,101936.44
2023-09-27T12:52:02.248Z,101939.69
2023-09-27T12:54:33.820Z,101930.47
2023-09-27T12:57:05.378Z,101914.56
2023-09-27T12:59:37.005Z,101923.06
2023-09-27T13:02:08.772Z,101951.88
2023-09-27T13:04:40.361Z,101952.94
2023-09-27T13:07:12.192Z,101961.66
2023-09-27T13:09:43.823Z,101961.38
2023-09-27T13:12:15.765Z,101965.75
2023-09-27T13:14:47.466Z,101962.31
2023-09-27T13:17:19.116Z,101943.47
2023-09-27T13:19:54.025Z,101947.56
2023-09-27T13:22:25.609Z,101972.78
2023-09-27T13:24:57.087Z,101972.97
2023-09-27T13:27:28.874Z,101968.84
2023-09-27T13:30:00.379Z,101953.50
2023-09-27T13:32:32.104Z,101954.44
2023-09-27T13:35:03.990Z,101949.50
2023-09-27T13:37:35.610Z,101942.81
2023-09-27T13:40:13.967Z,101935.53
2023-09-27T13:42:45.801Z,101926.72
2023-09-27T13:45:17.415Z,101927.97
2023-09-27T13:47:49.139Z,101927.06
2023-09-27T13:50:20.877Z,101909.81
2023-09-27T13:52:52.415Z,101906.66
2023-09-27T13:55:24.126Z,101904.78
2023-09-27T13:57:57.141Z,101909.94
2023-09-27T14:00:29.329Z,101910.91
2023-09-27T14:03:01.596Z,101909.97
2023-09-27T14:05:33.622Z,101908.84
2023-09-27T14:08:05.613Z,101905.03
2023-09-27T14:10:37.139Z,101915.91
2023-09-27T14:13:08.752Z,101909.91
2023-09-27T14:15:41.545Z,101904.38
2023-09-27T14:18:13.389Z,101902.34
2023-09-27T14:20:45.414Z,101895.56
2023-09-27T14:23:17.055Z,101880.94
2023-09-27T14:25:48.643Z,101880.47
2023-09-27T14:28:20.311Z,101866.91
2023-09-27T14:30:52.076Z,101872.03
2023-09-27T14:33:24.726Z,101864.28
2023-09-27T14:35:57.625Z,101869.91
2023-09-27T14:38:30.717Z,101875.91
2023-09-27T14:41:10.113Z,101873.88
2023-09-27T14:43:41.810Z,101870.56
2023-09-27T14:46:13.819Z,101861.91
2023-09-27T14:48:45.533Z,101863.03
2023-09-27T14:51:17.762Z,101862.44
2023-09-27T14:53:49.336Z,101864.03
2023-09-27T14:56:20.912Z,101859.34
2023-09-27T14:58:52.507Z,101856.09
2023-09-27T15:01:24.264Z,101861.78
2023-09-27T15:03:56.390Z,101862.44
2023-09-27T15:06:28.192Z,101865.81
2023-09-27T15:09:00.477Z,101860.66
2023-09-27T15:11:32.029Z,101855.06
2023-09-27T15:14:03.826Z,101850.16
2023-09-27T15:16:35.590Z,101839.28
2023-09-27T15:19:07.486Z,101841.75
2023-09-27T15:21:39.083Z,101835.72
2023-09-27T15:24:11.273Z,101829.91
2023-09-27T15:26:43.017Z,101837.44
2023-09-27T15:29:14.782Z,101837.72
2023-09-27T15:31:46.949Z,101833.53
2023-09-27T15:34:18.547Z,101835.72
2023-09-27T15:36:52.467Z,101837.44
2023-09-27T15:39:25.393Z,101836.38
2023-09-27T15:41:57.491Z,101833.91
2023-09-27T15:44:29.515Z,101838.38
2023-09-27T15:47:01.311Z,101834.09
2023-09-27T15:49:36.120Z,101838.84
2023-09-27T15:52:07.790Z,101832.44
2023-09-27T15:54:42.777Z,101826.81
2023-09-27T15:57:14.476Z,101831.97
2023-09-27T15:59:46.392Z,101823.19
2023-09-27T16:02:18.004Z,101829.81
2023-09-27T16:04:52.730Z,101826.88
2023-09-27T16:07:25.620Z,101825.47
2023-09-27T16:09:57.760Z,101833.63
2023-09-27T16:12:29.335Z,101828.59
2023-09-27T16:15:01.166Z,101831.63
2023-09-27T16:17:32.745Z,101826.97
2023-09-27T16:20:04.733Z,101826.81
2023-09-27T16:22:36.509Z,101831.38
2023-09-27T16:25:08.954Z,101832.53
2023-09-27T16:27:41.049Z,101829.84
2023-09-27T16:30:13.933Z,101818.84
2023-09-27T16:32:47.351Z,101813.72
2023-09-27T16:35:19.095Z,101809.31
2023-09-27T16:37:51.143Z,101804.34
2023-09-27T16:40:22.974Z,101800.09
2023-09-27T16:42:54.596Z,101796.03
2023-09-27T16:45:27.961Z,101798.09
2023-09-27T16:48:00.584Z,101798.69
2023-09-27T16:50:32.233Z,101792.66
2023-09-27T16:53:04.282Z,101784.78
2023-09-27T16:55:36.683Z,101787.94
2023-09-27T16:58:08.306Z,101787.97
2023-09-27T17:00:43.197Z,101784.34
2023-09-27T17:03:17.940Z,101783.84
2023-09-27T17:05:53.214Z,101777.66
2023-09-27T17:08:25.130Z,101778.84
2023-09-27T17:10:56.757Z,101774.22
2023-09-27T17:13:28.411Z,101769.06
2023-09-27T17:16:00.255Z,101762.91
2023-09-27T17:18:33.934Z,101759.13
2023-09-27T17:21:05.757Z,101762.91
2023-09-27T17:23:37.302Z,101761.19
2023-09-27T17:26:08.832Z,101764.28
2023-09-27T17:28:40.565Z,101762.91
2023-09-27T17:31:12.823Z,101762.06
2023-09-27T17:33:45.768Z,101756.88
2023-09-27T17:36:17.486Z,101751.91
2023-09-27T17:38:49.052Z,101755.34
2023-09-27T17:41:20.577Z,101748.09
2023-09-27T17:43:52.666Z,101744.28
2023-09-27T17:46:28.076Z,101739.28
2023-09-27T17:49:05.571Z,101736.19
2023-09-27T17:51:38.480Z,101738.38
2023-09-27T17:54:12.421Z,101739.41
2023-09-27T17:56:43.961Z,101732.66
2023-09-27T17:59:15.540Z,101728.03
2023-09-27T18:01:47.986Z,101730.13
2023-09-27T18:04:19.751Z,101720.31
2023-09-27T18:06:51.249Z,101722.06
2023-09-27T18:09:23.365Z,101718.44
2023-09-27T18:11:57.556Z,101721.19
2023-09-27T18:14:29.271Z,101713.44
2023-09-27T18:17:00.958Z,101710.16
2023-09-27T18:19:32.633Z,101718.03
2023-09-27T18:22:04.333Z,101708.75
2023-09-27T18:24:35.911Z,101708.59
2023-09-27T18:27:07.503Z,101703.59
2023-09-27T18:29:39.197Z,101705.13
2023-09-27T18:32:11.116Z,101702.53
2023-09-27T18:34:42.875Z,101698.72
2023-09-27T18:37:15.261Z,101699.94
2023-09-27T18:39:46.916Z,101689.13
2023-09-27T18:42:19.734Z,101687.53
2023-09-27T18:44:51.302Z,101688.03
2023-09-27T18:47:22.998Z,101678.06
2023-09-27T18:49:54.686Z,101676.34
2023-09-27T18:52:26.312Z,101674.66
2023-09-27T18:54:57.993Z,101674.25
2023-09-27T18:57:29.561Z,101666.19
2023-09-27T19:00:01.149Z,101669.25
2023-09-27T19:02:34.121Z,101673.03
2023-09-27T19:05:06.775Z,101666.16
2023-09-27T19:07:38.441Z,101667.03
2023-09-27T19:10:12.374Z,101670.06
2023-09-27T19:12:43.949Z,101659.25
2023-09-27T19:15:15.722Z,101668.00
2023-09-27T19:17:47.315Z,101665.75
2023-09-27T19:20:19.357Z,101660.25
2023-09-27T19:22:51.241Z,101659.06
2023-09-27T19:25:22.945Z,101654.56
2023-09-27T19:27:54.718Z,101642.56
2023-09-27T19:30:26.296Z,101642.03
2023-09-27T19:32:58.017Z,101637.06
2023-09-27T19:35:29.700Z,101635.00
2023-09-27T19:38:01.366Z,101640.50
2023-09-27T19:40:33.113Z,101640.97
2023-09-27T19:43:04.684Z,101634.28
2023-09-27T19:45:36.660Z,101636.97
2023-09-27T19:48:08.242Z,101637.50
2023-09-27T19:50:42.124Z,101621.66
2023-09-27T19:53:13.751Z,101613.91
2023-09-27T19:55:45.473Z,101615.59
2023-09-27T19:58:19.183Z,101613.88
2023-09-27T20:00:52.565Z,101614.91
2023-09-27T20:03:24.248Z,101605.97
2023-09-27T20:05:55.821Z,101611.97
2023-09-27T20:08:27.989Z,101613.19
2023-09-27T20:10:59.948Z,101617.22
2023-09-27T20:13:31.697Z,101609.53
2023-09-27T20:16:03.591Z,101610.91
2023-09-27T20:18:35.382Z,101615.19
2023-09-27T20:21:07.393Z,101614.16
2023-09-27T20:23:39.878Z,101613.13
2023-09-27T20:26:11.507Z,101616.03
2023-09-27T20:28:43.706Z,101616.69
2023-09-27T20:31:17.064Z,101613.06
2023-09-27T20:33:49.082Z,101596.84
2023-09-27T20:36:20.831Z,101605.72
2023-09-27T20:38:52.519Z,101605.06
2023-09-27T20:41:24.112Z,101604.38
2023-09-27T20:43:56.286Z,101598.38
2023-09-27T20:46:28.141Z,101600.91
2023-09-27T20:49:02.624Z,101591.53
2023-09-27T20:51:34.201Z,101588.44
2023-09-27T20:54:06.512Z,101576.41
2023-09-27T20:56:39.388Z,101578.66
2023-09-27T20:59:11.166Z,101566.34
2023-09-27T21:01:43.059Z,101568.28
2023-09-27T21:04:16.175Z,101564.88
2023-09-27T21:06:48.350Z,101560.84
2023-09-27T21:09:19.968Z,101561.19
2023-09-27T21:11:51.517Z,101560.53
2023-09-27T21:14:23.044Z,101555.72
2023-09-27T21:16:54.613Z,101544.44
2023-09-27T21:19:26.132Z,101548.06
2023-09-27T21:21:57.834Z,101537.94
2023-09-27T21:24:29.549Z,101528.16
2023-09-27T21:27:01.597Z,101528.69
2023-09-27T21:29:34.522Z,101528.53
2023-09-27T21:32:06.300Z,101527.69
2023-09-27T21:34:37.888Z,101528.38
2023-09-27T21:37:09.410Z,101529.59
2023-09-27T21:39:40.922Z,101529.59
2023-09-27T21:42:12.524Z,101517.56
2023-09-27T21:44:44.353Z,101521.84
2023-09-27T21:47:15.924Z,101519.44
2023-09-27T21:49:47.613Z,101514.63
2023-09-27T21:52:19.182Z,101509.31
2023-09-27T21:54:52.016Z,101513.78
2023-09-27T21:57:23.622Z,101509.13
2023-09-27T21:59:55.165Z,101513.56
2023-09-27T22:02:27.810Z,101494.38
2023-09-27T22:05:00.003Z,101498.81
2023-09-27T22:07:33.808Z,101495.38
2023-09-27T22:10:06.507Z,101486.81
2023-09-27T22:12:38.100Z,101475.47
2023-09-27T22:15:10.792Z,101471.69
2023-09-27T22:17:43.041Z,101482.84
2023-09-27T22:20:20.771Z,101483.00
2023-09-27T22:22:54.381Z,101480.75
2023-09-27T22:25:26.353Z,101473.06
2023-09-27T22:27:58.588Z,101462.94
2023-09-27T22:30:31.473Z,101457.47
2023-09-27T22:33:09.643Z,101443.53
2023-09-27T22:35:43.514Z,101435.31
2023-09-27T22:38:16.825Z,101443.00
2023-09-27T22:40:48.710Z,101436.84
2023-09-27T22:43:21.379Z,101446.78
2023-09-27T22:45:53.699Z,101445.44
2023-09-27T22:48:28.366Z,101445.09
2023-09-27T22:51:00.919Z,101454.16
2023-09-27T22:53:33.997Z,101453.50
2023-09-27T22:56:08.736Z,101452.47
2023-09-27T22:58:40.494Z,101449.72
2023-09-27T23:01:29.373Z,101444.59
2023-09-27T23:04:01.607Z,101444.56
2023-09-27T23:06:33.491Z,101459.81
2023-09-27T23:09:10.738Z,101460.50
2023-09-27T23:11:42.264Z,101457.06
2023-09-27T23:14:22.702Z,101451.09
2023-09-27T23:17:14.346Z,101452.25
2023-09-27T23:19:46.583Z,101439.03
2023-09-27T23:22:18.231Z,101437.81
2023-09-27T23:25:09.838Z,101425.63
2023-09-27T23:27:42.318Z,101424.25
2023-09-27T23:30:14.059Z,101423.53
2023-09-27T23:32:48.031Z,101429.19
2023-09-27T23:35:20.093Z,101435.06
2023-09-27T23:38:05.043Z,101432.44
2023-09-27T23:40:42.614Z,101432.28
2023-09-27T23:43:17.223Z,101430.72
2023-09-27T23:45:49.441Z,101430.03
2023-09-27T23:48:21.797Z,101417.53
2023-09-27T23:50:55.727Z,101407.38
2023-09-27T23:53:27.483Z,101401.19
2023-09-27T23:56:00.842Z,101393.16
2023-09-27T23:58:33.750Z,101371.03
